Latest Coastal Weather Observations for Pirlangimpi (Garden Point)

IDD60701

Issued at 8:11 am CST Wednesday 4 March 2015 (issued every 10 minutes, with the page automatically refreshed every 10 minutes)

About coastal observations | Map of coastal stations | Coastal observations for NT | Marine services | Other Formats
Station Details ID: 014142 Name: PIRLANGIMPI AIRPORT Lat: -11.40 Lon: 130.42 Height: 18.3 m
Data from the previous 72 hours. | See also: Recent months at Pirlangimpi (Garden Point)
Date/Time
CST
Temp

°C
Wind Pressure Rain
since 9am
mm
Weather Cloud Vis
km
Sea
Height
m
Swell
Dir
 
Speed
knots
Gust
knots
hPa Trend Height
m
Period
s
Dir
04/08:00am 26.0 N 1 3 1007.8 - 3.4 - - - - - - -
04/07:30am 25.3 CALM 0 0 1007.6 - 3.4 - - - - - - -
04/07:00am 24.9 ENE 1 1 1007.3 - 3.4 - - - - - - -
04/06:30am 24.8 CALM 0 1 1006.7 - 3.4 - - - - - - -
04/06:00am 25.0 NE 2 3 1006.2 - 3.4 - - - - - - -
04/05:30am 25.2 N 1 4 1006.0 - 3.4 - - - - - - -
04/05:00am 25.2 NNE 2 4 1005.7 - 3.4 - - - - - - -
04/04:30am 25.3 NNE 2 3 1005.6 - 3.4 - - - - - - -
04/04:00am 25.0 NE 2 3 1005.6 - 3.4 - - - - - - -
04/03:30am 25.0 NE 2 3 1005.9 - 3.4 - - - - - - -
04/03:00am 25.1 NE 2 2 1006.3 - 3.4 - - - - - - -
04/02:30am 25.3 NNE 1 3 1006.3 - 3.4 - - - - - - -
04/02:00am 25.4 N 2 4 1006.5 - 3.4 - - - - - - -
04/01:30am 25.3 NE 2 3 1006.6 - 3.4 - - - - - - -
04/01:00am 25.4 NNE 2 3 1006.8 - 3.4 - - - - - - -
04/12:30am 25.4 NNE 1 3 1007.0 - 3.4 - - - - - - -
04/12:00am 25.6 N 2 4 1007.1 - 3.4 - - - - - - -
 
Date/Time
CST
Temp

°C
Wind Pressure Rain
since 9am
mm
Weather Cloud Vis
km
Sea
Height
m
Swell
Dir
 
Speed
knots
Gust
knots
hPa Trend Height
m
Period
s
Dir
03/11:30pm 25.8 NNE 2 3 1007.5 - 3.4 - - - - - - -
03/11:00pm 25.9 N 2 4 1007.6 - 3.4 - - - - - - -
03/10:30pm 26.0 NE 2 3 1007.4 - 3.4 - - - - - - -
03/10:00pm 26.0 NNE 2 4 1007.1 - 3.4 - - - - - - -
03/09:30pm 26.2 NE 2 3 1006.7 - 3.4 - - - - - - -
03/09:00pm 26.4 NE 2 3 1006.3 - 3.4 - - - - - - -
03/08:30pm 26.7 NE 1 2 1006.0 - 3.4 - - - - - - -
03/08:00pm 26.9 N 3 6 1005.7 - 3.4 - - - - - - -
03/07:30pm 27.0 N 3 5 1005.3 - 3.4 - - - - - - -
03/07:00pm 27.2 N 2 5 1004.8 - 3.4 - - - - - - -
03/06:30pm 27.5 NNW 4 7 1004.4 - 3.4 - - - - - - -
03/06:00pm 27.9 NNW 4 9 1004.1 - 3.4 - - - - - - -
03/05:30pm 28.6 NNW 3 7 1004.2 - 3.4 - - - - - - -
03/05:00pm 29.3 NW 6 12 1004.0 - 3.4 - - - - - - -
03/04:30pm 29.8 NNW 6 10 1003.8 - 3.4 - - - - - - -
03/04:00pm 29.1 NNW 6 11 1003.8 - 3.4 - - - - - - -
03/03:30pm 27.6 NNW 3 5 1004.2 - 3.4 - - - - - - -
03/03:00pm 27.2 N 3 8 1004.6 - 3.4 Rain - - - - - -
03/02:30pm 28.5 N 4 15 1004.9 - 2.0 - - - - - - -
03/02:00pm 28.9 NE 5 10 1004.9 - 2.0 - - - - - - -
03/01:30pm 31.3 NE 4 7 1005.1 - 0.0 - - - - - - -
03/01:00pm 31.5 ENE 7 12 1005.6 - 0.0 - - - - - - -
03/12:30pm 31.5 NE 5 11 1005.9 - 0.0 - - - - - - -
03/12:00pm 31.0 NNE 4 9 1006.0 - 0.0 - - - - - - -
03/11:30am 30.9 NE 4 8 1006.4 - 0.0 - - - - - - -
03/11:00am 30.8 ENE 7 11 1006.5 - 0.0 - - - - - - -
03/10:30am 31.0 E 8 14 1006.5 - 0.0 - - - - - - -
03/10:00am 30.4 ENE 6 10 1006.7 - 0.0 - - - - - - -
03/09:30am 29.9 ENE 5 8 1006.3 - 0.0 - - - - - - -
03/09:00am 28.6 ENE 4 7 1006.3 - 10.2 - - - - - - -
03/08:30am 27.1 E 4 9 1005.8 - 10.2 - - - - - - -
03/08:00am 25.9 E 4 5 1005.3 - 10.2 - - - - - - -
03/07:30am 24.4 NE 1 3 1005.1 - 10.2 - - - - - - -
03/07:00am 23.8 NNE 1 2 1004.7 - 10.2 - - - - - - -
03/06:30am 23.8 CALM 0 0 1004.1 - 10.2 - - - - - - -
03/06:00am 23.9 SE 2 3 1003.8 - 10.2 - - - - - - -
03/05:30am 23.8 SSE 1 2 1003.6 - 10.2 - - - - - - -
03/05:00am 24.1 CALM 0 0 1003.5 - 10.2 - - - - - - -
03/04:30am 24.2 E 1 2 1003.5 - 10.2 - - - - - - -
03/04:00am 24.4 CALM 0 1 1003.4 - 10.2 - - - - - - -
03/03:30am 24.7 ESE 1 2 1003.5 - 10.2 - - - - - - -
03/03:00am 25.1 SE 2 4 1003.6 - 10.2 - - - - - - -
03/02:30am 25.3 S 3 3 1004.0 - 10.2 - - - - - - -
03/02:00am 25.6 WSW 2 5 1004.6 - 10.2 - - - - - - -
03/01:30am 25.3 NW 2 3 1004.8 - 10.2 - - - - - - -
03/01:00am 25.3 WNW 2 4 1005.4 - 10.2 - - - - - - -
03/12:30am 24.6 CALM 0 0 1005.6 - 10.2 - - - - - - -
03/12:00am 24.4 NE 2 3 1005.7 - 10.2 - - - - - - -
 
Date/Time
CST
Temp

°C
Wind Pressure Rain
since 9am
mm
Weather Cloud Vis
km
Sea
Height
m
Swell
Dir
 
Speed
knots
Gust
knots
hPa Trend Height
m
Period
s
Dir
02/11:30pm 24.5 CALM 0 1 1005.9 - 10.2 - - - - - - -
02/11:00pm 24.5 CALM 0 0 1006.0 - 10.2 - - - - - - -
02/10:30pm 24.5 NNE 1 3 1005.9 - 10.2 - - - - - - -
02/10:00pm 24.8 CALM 0 0 1005.6 - 10.2 - - - - - - -
02/09:30pm 25.2 S 1 3 1005.0 - 10.2 - - - - - - -
02/09:00pm 25.7 WSW 1 2 1004.3 - 10.2 - - - - - - -
02/08:30pm 26.5 SW 5 8 1004.7 - 10.2 - - - - - - -
02/08:00pm 26.8 CALM 0 2 1004.8 - 10.2 - - - - - - -
02/07:30pm 27.0 SW 1 3 1004.5 - 10.2 - - - - - - -
02/07:00pm 27.5 WSW 1 2 1003.7 - 10.2 - - - - - - -
02/06:30pm 27.9 W 1 3 1003.6 - 10.2 - - - - - - -
02/06:00pm 28.7 WSW 2 5 1003.4 - 10.2 - - - - - - -
02/05:30pm 28.8 WSW 2 4 1003.4 - 10.2 - - - - - - -
02/05:00pm 28.6 SSW 4 6 1003.3 - 10.2 - - - - - - -
02/04:30pm 28.1 SW 3 5 1003.2 - 10.2 - - - - - - -
02/04:00pm 27.1 WSW 3 5 1003.2 - 10.2 - - - - - - -
02/03:30pm 26.6 WSW 3 6 1003.6 - 10.2 - - - - - - -
02/03:00pm 26.2 SW 2 5 1004.1 - 10.0 - - - - - - -
02/02:30pm 25.7 SW 3 7 1004.2 - 10.0 - - - - - - -
02/02:00pm 25.3 WNW 2 5 1004.8 - 10.0 - - - - - - -
02/01:30pm 25.0 WNW 3 7 1005.4 - 10.0 - - - - - - -
02/01:00pm 25.2 WNW 4 8 1006.5 - 9.8 - - - - - - -
02/12:30pm 24.8 WNW 2 4 1006.8 - 9.0 - - - - - - -
02/12:00pm 24.7 SW 4 8 1007.3 - 8.6 Rain - - - - - -
02/11:30am 25.4 WSW 6 14 1007.4 - 3.6 - - - - - - -
02/11:00am 27.8 NW 2 3 1006.5 - 0.2 - - - - - - -
02/10:30am 28.8 NNW 1 2 1006.7 - 0.0 - - - - - - -
02/10:00am 28.9 NW 1 3 1006.6 - 0.0 - - - - - - -
02/09:30am 28.8 CALM 0 2 1007.1 - 0.0 - - - - - - -
02/09:00am 28.6 CALM 0 3 1006.7 - 47.6 - - - - - - -
02/08:30am 27.9 S 1 3 1006.8 - 47.6 - - - - - - -
02/08:00am 27.2 CALM 0 0 1006.6 - 47.6 - - - - - - -
02/07:30am 26.9 NW 1 3 1005.8 - 47.6 - - - - - - -
02/07:00am 26.7 W 1 3 1005.4 - 47.6 - - - - - - -
02/06:30am 26.5 W 1 3 1005.2 - 47.6 - - - - - - -
02/06:00am 26.6 W 2 4 1005.1 - 47.6 - - - - - - -
02/05:30am 26.4 W 1 4 1005.0 - 47.6 - - - - - - -
02/05:00am 26.3 WNW 1 5 1004.9 - 47.6 - - - - - - -
02/04:30am 25.9 CALM 0 0 1004.8 - 47.6 - - - - - - -
02/04:00am 26.0 CALM 0 1 1005.1 - 47.6 - - - - - - -
02/03:30am 26.0 CALM 0 1 1005.2 - 47.6 - - - - - - -
02/03:00am 26.1 CALM 0 1 1005.2 - 47.6 - - - - - - -
02/02:30am 26.3 SW 1 3 1005.2 - 47.6 - - - - - - -
02/02:00am 26.3 CALM 0 0 1006.1 - 47.6 - - - - - - -
02/01:30am 26.4 SW 1 2 1006.6 - 47.6 - - - - - - -
02/01:00am 26.5 S 2 3 1006.9 - 47.6 - - - - - - -
02/12:30am 26.5 WNW 2 4 1006.1 - 47.4 - - - - - - -
02/12:00am 26.4 WNW 2 3 1006.4 - 47.4 - - - - - - -
 
Date/Time
CST
Temp

°C
Wind Pressure Rain
since 9am
mm
Weather Cloud Vis
km
Sea
Height
m
Swell
Dir
 
Speed
knots
Gust
knots
hPa Trend Height
m
Period
s
Dir
01/11:30pm 26.3 W 1 3 1007.1 - 47.4 - - - - - - -
01/11:00pm 25.9 WSW 2 3 1007.5 - 47.4 - - - - - - -
01/10:30pm 26.1 CALM 0 0 1007.9 - 47.4 - - - - - - -
01/10:00pm 26.1 W 1 2 1007.6 - 47.4 - - - - - - -
01/09:30pm 26.1 WNW 1 3 1007.4 - 47.4 - - - - - - -
01/09:00pm 26.1 CALM 0 1 1007.0 - 47.4 - - - - - - -
01/08:30pm 26.3 W 1 3 1006.8 - 47.4 - - - - - - -
01/08:00pm 26.4 WNW 1 2 1006.8 - 47.4 - - - - - - -
01/07:30pm 26.6 WSW 1 3 1006.2 - 47.4 - - - - - - -
01/07:00pm 26.8 W 2 7 1005.5 - 47.4 - - - - - - -
01/06:30pm 26.7 WSW 3 7 1005.4 - 47.4 - - - - - - -
01/06:00pm 26.3 WNW 2 6 1005.1 - 47.2 - - - - - - -
01/05:30pm 26.3 W 2 5 1005.0 - 47.2 - - - - - - -
01/05:00pm 26.6 W 4 8 1004.6 - 47.2 - - - - - - -
01/04:30pm 26.8 NW 3 6 1004.4 - 46.2 - - - - - - -
01/04:00pm 25.1 CALM 0 0 1005.1 - 45.0 - - - - - - -
01/03:30pm 25.2 NNW 1 3 1005.1 - 44.6 - - - - - - -
01/03:00pm 25.1 NW 3 6 1005.3 - 44.2 Rain - - - - - -
01/02:30pm 24.2 NNW 3 8 1006.0 - 42.0 - - - - - - -
01/02:00pm 25.5 SSW 4 8 1006.3 - 14.8 - - - - - - -
01/01:30pm 28.1 W 4 11 1005.9 - 4.4 - - - - - - -
01/01:00pm 29.1 W 4 10 1006.6 - 1.0 - - - - - - -
01/12:30pm 31.1 WNW 5 10 1007.1 - 0.0 - - - - - - -
01/12:00pm 32.1 WNW 4 7 1007.6 - 0.0 - - - - - - -
01/11:30am 30.0 WNW 5 11 1007.7 - 0.0 - - - - - - -
01/11:00am 31.4 W 4 8 1007.9 - 0.0 - - - - - - -
01/10:30am 29.6 WNW 4 7 1008.2 - 0.0 - - - - - - -
01/10:00am 29.9 W 4 9 1008.3 - 0.0 - - - - - - -
01/09:30am 30.6 WNW 3 7 1008.1 - 0.0 - - - - - - -
01/09:00am 29.2 W 2 3 1008.0 - 0.0 - - - - - - -
01/08:30am 28.4 WNW 2 5 1007.6 - 0.0 - - - - - - -

Other Formats:

Comma delimited format used in spreadsheet applications
http://www.bom.gov.au/fwo/IDD60701/IDD60701.94119.axf

JavaScript Object Notation format (JSON) in row-major order
http://www.bom.gov.au/fwo/IDD60701/IDD60701.94119.json